sensor_id;sensor_type;location;lat;lon;timestamp;pressure;altitude;pressure_sealevel;temperature;humidity
60920;BME280;59039;52.108;19.942;2023-01-29T00:00:26;101645.87;;;-0.45;71.51
60920;BME280;59039;52.108;19.942;2023-01-29T00:03:02;101642.52;;;-0.46;71.11
60920;BME280;59039;52.108;19.942;2023-01-29T00:05:28;101636.25;;;-0.45;71.41
60920;BME280;59039;52.108;19.942;2023-01-29T00:07:55;101628.04;;;-0.43;71.68
60920;BME280;59039;52.108;19.942;2023-01-29T00:10:26;101626.92;;;-0.43;72.21
60920;BME280;59039;52.108;19.942;2023-01-29T00:13:01;101628.25;;;-0.44;71.69
60920;BME280;59039;52.108;19.942;2023-01-29T00:15:34;101629.33;;;-0.45;71.98
60920;BME280;59039;52.108;19.942;2023-01-29T00:20:40;101620.04;;;-0.49;71.26
60920;BME280;59039;52.108;19.942;2023-01-29T00:23:20;101613.67;;;-0.50;71.14
60920;BME280;59039;52.108;19.942;2023-01-29T00:25:49;101611.21;;;-0.51;71.31
60920;BME280;59039;52.108;19.942;2023-01-29T00:28:20;101606.21;;;-0.51;71.45
60920;BME280;59039;52.108;19.942;2023-01-29T00:30:45;101604.44;;;-0.51;71.58
60920;BME280;59039;52.108;19.942;2023-01-29T00:33:34;101596.64;;;-0.52;71.67
60920;BME280;59039;52.108;19.942;2023-01-29T00:36:09;101586.38;;;-0.54;71.64
60920;BME280;59039;52.108;19.942;2023-01-29T00:38:41;101581.38;;;-0.53;71.37
60920;BME280;59039;52.108;19.942;2023-01-29T00:41:15;101584.02;;;-0.52;71.34
60920;BME280;59039;52.108;19.942;2023-01-29T00:43:52;101584.29;;;-0.50;71.72
60920;BME280;59039;52.108;19.942;2023-01-29T00:46:17;101579.40;;;-0.48;71.43
60920;BME280;59039;52.108;19.942;2023-01-29T00:48:52;101574.16;;;-0.46;71.44
60920;BME280;59039;52.108;19.942;2023-01-29T00:51:23;101570.89;;;-0.44;71.61
60920;BME280;59039;52.108;19.942;2023-01-29T00:56:31;101574.06;;;-0.43;72.05
60920;BME280;59039;52.108;19.942;2023-01-29T00:58:59;101572.19;;;-0.46;72.10
60920;BME280;59039;52.108;19.942;2023-01-29T01:01:25;101560.36;;;-0.48;72.17
60920;BME280;59039;52.108;19.942;2023-01-29T01:03:59;101547.59;;;-0.50;71.91
60920;BME280;59039;52.108;19.942;2023-01-29T01:06:45;101547.05;;;-0.49;72.38
60920;BME280;59039;52.108;19.942;2023-01-29T01:09:10;101548.92;;;-0.52;71.89
60920;BME280;59039;52.108;19.942;2023-01-29T01:11:35;101550.92;;;-0.53;72.10
60920;BME280;59039;52.108;19.942;2023-01-29T01:14:01;101542.20;;;-0.53;71.65
60920;BME280;59039;52.108;19.942;2023-01-29T01:19:32;101529.75;;;-0.53;71.88
60920;BME280;59039;52.108;19.942;2023-01-29T01:22:23;101526.37;;;-0.53;71.84
60920;BME280;59039;52.108;19.942;2023-01-29T01:25:02;101527.86;;;-0.55;71.82
60920;BME280;59039;52.108;19.942;2023-01-29T01:27:30;101520.98;;;-0.56;71.92
60920;BME280;59039;52.108;19.942;2023-01-29T01:29:59;101517.66;;;-0.58;71.84
60920;BME280;59039;52.108;19.942;2023-01-29T01:32:52;101518.39;;;-0.59;72.07
60920;BME280;59039;52.108;19.942;2023-01-29T01:35:38;101524.85;;;-0.60;71.72
60920;BME280;59039;52.108;19.942;2023-01-29T01:38:08;101535.80;;;-0.63;71.52
60920;BME280;59039;52.108;19.942;2023-01-29T01:40:54;101535.48;;;-0.64;71.59
60920;BME280;59039;52.108;19.942;2023-01-29T01:44:01;101531.70;;;-0.63;71.52
60920;BME280;59039;52.108;19.942;2023-01-29T01:46:30;101527.60;;;-0.62;72.42
60920;BME280;59039;52.108;19.942;2023-01-29T01:51:41;101528.73;;;-0.64;72.38
60920;BME280;59039;52.108;19.942;2023-01-29T01:54:18;101521.29;;;-0.65;72.37
60920;BME280;59039;52.108;19.942;2023-01-29T01:56:56;101519.82;;;-0.64;72.07
60920;BME280;59039;52.108;19.942;2023-01-29T01:59:24;101522.61;;;-0.62;72.14
60920;BME280;59039;52.108;19.942;2023-01-29T02:01:52;101525.82;;;-0.62;72.48
60920;BME280;59039;52.108;19.942;2023-01-29T02:04:29;101530.70;;;-0.64;72.42
60920;BME280;59039;52.108;19.942;2023-01-29T02:07:08;101532.77;;;-0.67;72.24
60920;BME280;59039;52.108;19.942;2023-01-29T02:12:46;101545.01;;;-0.71;72.07
60920;BME280;59039;52.108;19.942;2023-01-29T02:15:53;101545.56;;;-0.72;72.21
60920;BME280;59039;52.108;19.942;2023-01-29T02:18:41;101541.89;;;-0.74;71.78
60920;BME280;59039;52.108;19.942;2023-01-29T02:21:34;101540.09;;;-0.73;72.01
60920;BME280;59039;52.108;19.942;2023-01-29T02:27:20;101536.10;;;-0.71;72.20
60920;BME280;59039;52.108;19.942;2023-01-29T02:35:45;101527.16;;;-0.71;72.49
60920;BME280;59039;52.108;19.942;2023-01-29T02:38:23;101522.71;;;-0.70;72.45
60920;BME280;59039;52.108;19.942;2023-01-29T02:41:10;101513.48;;;-0.71;72.36
60920;BME280;59039;52.108;19.942;2023-01-29T02:43:54;101504.54;;;-0.69;72.24
60920;BME280;59039;52.108;19.942;2023-01-29T02:46:35;101499.89;;;-0.69;72.06
60920;BME280;59039;52.108;19.942;2023-01-29T02:49:31;101498.61;;;-0.68;72.53
60920;BME280;59039;52.108;19.942;2023-01-29T02:52:35;101502.85;;;-0.67;72.38
60920;BME280;59039;52.108;19.942;2023-01-29T02:55:08;101499.45;;;-0.67;72.46
60920;BME280;59039;52.108;19.942;2023-01-29T02:58:12;101498.55;;;-0.67;72.44
60920;BME280;59039;52.108;19.942;2023-01-29T03:00:48;101493.38;;;-0.66;72.71
60920;BME280;59039;52.108;19.942;2023-01-29T03:03:31;101487.85;;;-0.66;72.57
60920;BME280;59039;52.108;19.942;2023-01-29T03:09:06;101485.01;;;-0.66;73.01
60920;BME280;59039;52.108;19.942;2023-01-29T03:11:37;101483.98;;;-0.67;72.62
60920;BME280;59039;52.108;19.942;2023-01-29T03:14:52;101479.67;;;-0.66;72.61
60920;BME280;59039;52.108;19.942;2023-01-29T03:16:55;101480.52;;;-0.65;72.67
60920;BME280;59039;52.108;19.942;2023-01-29T03:19:34;101482.05;;;-0.63;72.74
60920;BME280;59039;52.108;19.942;2023-01-29T03:22:03;101483.11;;;-0.63;72.43
60920;BME280;59039;52.108;19.942;2023-01-29T03:27:37;101486.63;;;-0.62;72.69
60920;BME280;59039;52.108;19.942;2023-01-29T03:30:26;101484.14;;;-0.62;72.54
60920;BME280;59039;52.108;19.942;2023-01-29T03:32:56;101478.97;;;-0.62;72.68
60920;BME280;59039;52.108;19.942;2023-01-29T03:35:35;101475.08;;;-0.62;72.92
60920;BME280;59039;52.108;19.942;2023-01-29T03:38:17;101477.98;;;-0.63;73.06
60920;BME280;59039;52.108;19.942;2023-01-29T03:53:03;101484.11;;;-0.61;72.72
60920;BME280;59039;52.108;19.942;2023-01-29T03:55:50;101481.73;;;-0.59;72.89
60920;BME280;59039;52.108;19.942;2023-01-29T03:58:57;101481.84;;;-0.58;73.04
60920;BME280;59039;52.108;19.942;2023-01-29T04:01:43;101468.45;;;-0.56;73.04
60920;BME280;59039;52.108;19.942;2023-01-29T04:04:41;101467.16;;;-0.55;72.99
60920;BME280;59039;52.108;19.942;2023-01-29T04:07:20;101464.09;;;-0.54;73.20
60920;BME280;59039;52.108;19.942;2023-01-29T04:10:48;101469.62;;;-0.54;73.24
60920;BME280;59039;52.108;19.942;2023-01-29T04:16:35;101467.80;;;-0.58;73.12
60920;BME280;59039;52.108;19.942;2023-01-29T04:19:01;101452.71;;;-0.59;73.19
60920;BME280;59039;52.108;19.942;2023-01-29T04:21:52;101444.36;;;-0.59;73.27
60920;BME280;59039;52.108;19.942;2023-01-29T04:24:26;101438.69;;;-0.60;73.15
60920;BME280;59039;52.108;19.942;2023-01-29T04:27:04;101438.66;;;-0.59;73.24
60920;BME280;59039;52.108;19.942;2023-01-29T04:29:42;101437.99;;;-0.60;73.32
60920;BME280;59039;52.108;19.942;2023-01-29T04:32:22;101441.69;;;-0.59;73.35
60920;BME280;59039;52.108;19.942;2023-01-29T04:46:30;101429.43;;;-0.60;73.30
60920;BME280;59039;52.108;19.942;2023-01-29T04:52:30;101429.52;;;-0.63;73.14
60920;BME280;59039;52.108;19.942;2023-01-29T04:55:21;101431.70;;;-0.64;73.06
60920;BME280;59039;52.108;19.942;2023-01-29T04:57:53;101430.13;;;-0.65;73.13
60920;BME280;59039;52.108;19.942;2023-01-29T05:00:31;101424.65;;;-0.66;73.06
60920;BME280;59039;52.108;19.942;2023-01-29T05:03:03;101422.35;;;-0.66;72.83
60920;BME280;59039;52.108;19.942;2023-01-29T05:05:51;101424.66;;;-0.66;72.93
60920;BME280;59039;52.108;19.942;2023-01-29T05:08:25;101426.95;;;-0.65;73.10
60920;BME280;59039;52.108;19.942;2023-01-29T05:10:52;101423.90;;;-0.65;73.13
60920;BME280;59039;52.108;19.942;2023-01-29T05:13:31;101428.69;;;-0.65;72.98
60920;BME280;59039;52.108;19.942;2023-01-29T05:16:01;101428.32;;;-0.64;72.79
60920;BME280;59039;52.108;19.942;2023-01-29T05:18:52;101427.77;;;-0.63;72.87
60920;BME280;59039;52.108;19.942;2023-01-29T05:21:28;101423.98;;;-0.62;72.71
60920;BME280;59039;52.108;19.942;2023-01-29T05:24:15;101419.30;;;-0.60;73.16
60920;BME280;59039;52.108;19.942;2023-01-29T05:26:43;101415.59;;;-0.61;73.04
60920;BME280;59039;52.108;19.942;2023-01-29T05:29:11;101408.64;;;-0.61;73.33
60920;BME280;59039;52.108;19.942;2023-01-29T05:31:39;101411.33;;;-0.61;73.33
60920;BME280;59039;52.108;19.942;2023-01-29T05:39:28;101403.38;;;-0.63;73.14
60920;BME280;59039;52.108;19.942;2023-01-29T05:41:56;101404.48;;;-0.64;73.16
60920;BME280;59039;52.108;19.942;2023-01-29T05:44:41;101409.45;;;-0.64;73.11
60920;BME280;59039;52.108;19.942;2023-01-29T05:47:30;101405.36;;;-0.63;73.09
60920;BME280;59039;52.108;19.942;2023-01-29T05:49:55;101396.81;;;-0.63;73.24
60920;BME280;59039;52.108;19.942;2023-01-29T05:52:23;101393.59;;;-0.63;73.36
60920;BME280;59039;52.108;19.942;2023-01-29T05:57:56;101388.73;;;-0.67;73.01
60920;BME280;59039;52.108;19.942;2023-01-29T06:00:35;101386.44;;;-0.67;72.90
60920;BME280;59039;52.108;19.942;2023-01-29T06:05:46;101383.02;;;-0.66;73.03
60920;BME280;59039;52.108;19.942;2023-01-29T06:08:33;101383.02;;;-0.66;73.12
60920;BME280;59039;52.108;19.942;2023-01-29T06:11:09;101382.99;;;-0.65;73.33
60920;BME280;59039;52.108;19.942;2023-01-29T06:13:36;101385.15;;;-0.66;73.31
60920;BME280;59039;52.108;19.942;2023-01-29T06:16:11;101389.12;;;-0.67;73.54
60920;BME280;59039;52.108;19.942;2023-01-29T06:18:40;101393.66;;;-0.70;73.18
60920;BME280;59039;52.108;19.942;2023-01-29T06:21:11;101391.29;;;-0.68;73.41
60920;BME280;59039;52.108;19.942;2023-01-29T06:23:40;101393.85;;;-0.70;73.27
60920;BME280;59039;52.108;19.942;2023-01-29T06:26:33;101394.98;;;-0.72;73.35
60920;BME280;59039;52.108;19.942;2023-01-29T06:31:45;101389.08;;;-0.75;73.15
60920;BME280;59039;52.108;19.942;2023-01-29T06:34:11;101384.45;;;-0.76;73.16
60920;BME280;59039;52.108;19.942;2023-01-29T06:36:49;101383.58;;;-0.76;73.31
60920;BME280;59039;52.108;19.942;2023-01-29T06:39:17;101393.91;;;-0.76;73.36
60920;BME280;59039;52.108;19.942;2023-01-29T06:41:42;101400.45;;;-0.74;73.43
60920;BME280;59039;52.108;19.942;2023-01-29T06:44:08;101395.84;;;-0.75;73.30
60920;BME280;59039;52.108;19.942;2023-01-29T06:46:37;101395.80;;;-0.74;73.33
60920;BME280;59039;52.108;19.942;2023-01-29T06:49:02;101392.98;;;-0.75;73.21
60920;BME280;59039;52.108;19.942;2023-01-29T06:51:28;101391.89;;;-0.74;73.28
60920;BME280;59039;52.108;19.942;2023-01-29T06:54:14;101395.98;;;-0.74;73.41
60920;BME280;59039;52.108;19.942;2023-01-29T06:56:39;101399.04;;;-0.75;73.22
60920;BME280;59039;52.108;19.942;2023-01-29T06:59:04;101398.50;;;-0.75;73.29
60920;BME280;59039;52.108;19.942;2023-01-29T07:01:30;101399.04;;;-0.75;73.25
60920;BME280;59039;52.108;19.942;2023-01-29T07:03:55;101387.02;;;-0.77;73.32
60920;BME280;59039;52.108;19.942;2023-01-29T07:09:19;101378.70;;;-0.78;73.27
60920;BME280;59039;52.108;19.942;2023-01-29T07:11:53;101381.58;;;-0.79;73.41
60920;BME280;59039;52.108;19.942;2023-01-29T07:14:39;101387.63;;;-0.79;73.39
60920;BME280;59039;52.108;19.942;2023-01-29T07:17:04;101396.09;;;-0.77;73.39
60920;BME280;59039;52.108;19.942;2023-01-29T07:19:51;101403.78;;;-0.73;73.54
60920;BME280;59039;52.108;19.942;2023-01-29T07:22:15;101408.61;;;-0.70;73.53
60920;BME280;59039;52.108;19.942;2023-01-29T07:25:05;101410.27;;;-0.67;73.58
60920;BME280;59039;52.108;19.942;2023-01-29T07:27:32;101411.59;;;-0.63;73.44
60920;BME280;59039;52.108;19.942;2023-01-29T07:29:57;101397.92;;;-0.60;73.85
60920;BME280;59039;52.108;19.942;2023-01-29T07:32:23;101389.90;;;-0.60;73.62
60920;BME280;59039;52.108;19.942;2023-01-29T07:34:48;101387.02;;;-0.59;73.62
60920;BME280;59039;52.108;19.942;2023-01-29T07:37:13;101386.33;;;-0.59;73.34
60920;BME280;59039;52.108;19.942;2023-01-29T07:39:39;101393.39;;;-0.58;73.26
60920;BME280;59039;52.108;19.942;2023-01-29T07:42:04;101390.31;;;-0.57;73.36
60920;BME280;59039;52.108;19.942;2023-01-29T07:44:30;101384.91;;;-0.55;73.39
60920;BME280;59039;52.108;19.942;2023-01-29T07:46:55;101383.98;;;-0.54;73.35
60920;BME280;59039;52.108;19.942;2023-01-29T07:49:29;101383.76;;;-0.53;73.27
60920;BME280;59039;52.108;19.942;2023-01-29T07:52:01;101377.81;;;-0.51;73.35
60920;BME280;59039;52.108;19.942;2023-01-29T07:54:50;101385.07;;;-0.50;73.13
60920;BME280;59039;52.108;19.942;2023-01-29T07:57:23;101394.03;;;-0.47;73.32
60920;BME280;59039;52.108;19.942;2023-01-29T07:59:51;101396.13;;;-0.46;73.31
60920;BME280;59039;52.108;19.942;2023-01-29T08:02:16;101395.19;;;-0.45;73.44
60920;BME280;59039;52.108;19.942;2023-01-29T08:04:51;101387.08;;;-0.42;73.47
60920;BME280;59039;52.108;19.942;2023-01-29T08:07:16;101381.27;;;-0.40;73.55
60920;BME280;59039;52.108;19.942;2023-01-29T08:09:42;101380.49;;;-0.37;73.63
60920;BME280;59039;52.108;19.942;2023-01-29T08:12:12;101376.64;;;-0.35;73.85
60920;BME280;59039;52.108;19.942;2023-01-29T08:14:38;101370.71;;;-0.34;73.72
60920;BME280;59039;52.108;19.942;2023-01-29T08:17:03;101367.06;;;-0.31;73.73
60920;BME280;59039;52.108;19.942;2023-01-29T08:19:46;101365.20;;;-0.29;73.77
60920;BME280;59039;52.108;19.942;2023-01-29T08:22:12;101360.61;;;-0.26;73.75
60920;BME280;59039;52.108;19.942;2023-01-29T08:24:49;101351.08;;;-0.24;73.73
60920;BME280;59039;52.108;19.942;2023-01-29T08:27:18;101348.38;;;-0.23;73.67
60920;BME280;59039;52.108;19.942;2023-01-29T08:29:43;101339.80;;;-0.22;73.64
60920;BME280;59039;52.108;19.942;2023-01-29T08:32:09;101333.84;;;-0.21;73.87
60920;BME280;59039;52.108;19.942;2023-01-29T08:34:35;101331.05;;;-0.17;73.78
60920;BME280;59039;52.108;19.942;2023-01-29T08:37:00;101331.60;;;-0.14;73.72
60920;BME280;59039;52.108;19.942;2023-01-29T08:39:25;101335.57;;;-0.11;73.83
60920;BME280;59039;52.108;19.942;2023-01-29T08:41:51;101339.41;;;-0.08;73.75
60920;BME280;59039;52.108;19.942;2023-01-29T08:44:19;101346.26;;;-0.07;73.81
60920;BME280;59039;52.108;19.942;2023-01-29T08:46:50;101345.48;;;-0.05;73.63
60920;BME280;59039;52.108;19.942;2023-01-29T08:49:21;101343.98;;;-0.03;73.79
60920;BME280;59039;52.108;19.942;2023-01-29T08:51:46;101346.98;;;-0.03;73.75
60920;BME280;59039;52.108;19.942;2023-01-29T08:54:14;101342.65;;;-0.01;73.72
60920;BME280;59039;52.108;19.942;2023-01-29T08:56:40;101335.27;;;0.01;73.75
60920;BME280;59039;52.108;19.942;2023-01-29T08:59:05;101337.80;;;0.04;73.78
60920;BME280;59039;52.108;19.942;2023-01-29T09:01:31;101337.95;;;0.05;73.78
60920;BME280;59039;52.108;19.942;2023-01-29T09:04:09;101344.30;;;0.06;73.98
60920;BME280;59039;52.108;19.942;2023-01-29T09:06:42;101343.66;;;0.09;74.08
60920;BME280;59039;52.108;19.942;2023-01-29T09:09:10;101341.65;;;0.10;74.42
60920;BME280;59039;52.108;19.942;2023-01-29T09:11:36;101335.85;;;0.12;74.63
60920;BME280;59039;52.108;19.942;2023-01-29T09:14:04;101339.37;;;0.13;74.93
60920;BME280;59039;52.108;19.942;2023-01-29T09:16:29;101342.17;;;0.14;75.03
60920;BME280;59039;52.108;19.942;2023-01-29T09:18:54;101344.83;;;0.15;74.95
60920;BME280;59039;52.108;19.942;2023-01-29T09:21:25;101346.83;;;0.14;75.23
60920;BME280;59039;52.108;19.942;2023-01-29T09:26:50;101338.31;;;0.13;75.55
60920;BME280;59039;52.108;19.942;2023-01-29T09:29:16;101329.39;;;0.09;75.52
60920;BME280;59039;52.108;19.942;2023-01-29T09:31:41;101319.37;;;0.06;75.92
60920;BME280;59039;52.108;19.942;2023-01-29T09:34:07;101318.35;;;0.05;75.83
60920;BME280;59039;52.108;19.942;2023-01-29T09:36:32;101316.14;;;0.03;75.87
60920;BME280;59039;52.108;19.942;2023-01-29T09:38:58;101314.47;;;0.00;76.61
60920;BME280;59039;52.108;19.942;2023-01-29T09:47:26;101315.66;;;-0.03;78.59
60920;BME280;59039;52.108;19.942;2023-01-29T09:52:29;101316.48;;;-0.02;78.38
60920;BME280;59039;52.108;19.942;2023-01-29T10:00:53;101308.47;;;0.02;78.74
60920;BME280;59039;52.108;19.942;2023-01-29T10:03:37;101305.96;;;0.03;78.82
60920;BME280;59039;52.108;19.942;2023-01-29T10:16:52;101292.06;;;0.03;78.27
60920;BME280;59039;52.108;19.942;2023-01-29T10:25:25;101281.39;;;0.02;78.76
60920;BME280;59039;52.108;19.942;2023-01-29T10:27:56;101276.01;;;0.04;78.69
60920;BME280;59039;52.108;19.942;2023-01-29T10:30:37;101275.28;;;0.04;78.96
60920;BME280;59039;52.108;19.942;2023-01-29T10:35:50;101268.00;;;0.07;79.51
60920;BME280;59039;52.108;19.942;2023-01-29T10:38:42;101269.70;;;0.09;79.62
60920;BME280;59039;52.108;19.942;2023-01-29T10:41:36;101265.36;;;0.10;79.42
60920;BME280;59039;52.108;19.942;2023-01-29T10:47:17;101253.85;;;0.13;79.28
60920;BME280;59039;52.108;19.942;2023-01-29T10:58:48;101245.20;;;0.24;80.12
60920;BME280;59039;52.108;19.942;2023-01-29T11:01:15;101240.59;;;0.27;80.00
60920;BME280;59039;52.108;19.942;2023-01-29T11:03:43;101237.08;;;0.29;79.65
60920;BME280;59039;52.108;19.942;2023-01-29T11:06:21;101236.84;;;0.31;79.68
60920;BME280;59039;52.108;19.942;2023-01-29T11:09:31;101236.75;;;0.33;80.14
60920;BME280;59039;52.108;19.942;2023-01-29T11:14:55;101227.02;;;0.38;80.08
60920;BME280;59039;52.108;19.942;2023-01-29T11:17:24;101225.17;;;0.40;79.79
60920;BME280;59039;52.108;19.942;2023-01-29T11:19:53;101227.73;;;0.43;79.50
60920;BME280;59039;52.108;19.942;2023-01-29T11:22:21;101225.21;;;0.44;79.72
60920;BME280;59039;52.108;19.942;2023-01-29T11:27:51;101212.14;;;0.45;79.68
60920;BME280;59039;52.108;19.942;2023-01-29T11:30:26;101204.17;;;0.44;79.63
60920;BME280;59039;52.108;19.942;2023-01-29T11:33:18;101200.87;;;0.42;79.51
60920;BME280;59039;52.108;19.942;2023-01-29T11:35:45;101189.56;;;0.39;79.27
60920;BME280;59039;52.108;19.942;2023-01-29T11:38:28;101187.89;;;0.37;79.12
60920;BME280;59039;52.108;19.942;2023-01-29T11:41:14;101185.52;;;0.34;79.27
60920;BME280;59039;52.108;19.942;2023-01-29T11:43:43;101187.52;;;0.34;79.60
60920;BME280;59039;52.108;19.942;2023-01-29T11:46:13;101185.91;;;0.33;79.76
60920;BME280;59039;52.108;19.942;2023-01-29T11:48:51;101182.38;;;0.33;79.69
60920;BME280;59039;52.108;19.942;2023-01-29T11:51:27;101182.34;;;0.34;79.49
60920;BME280;59039;52.108;19.942;2023-01-29T11:54:03;101170.42;;;0.33;79.45
60920;BME280;59039;52.108;19.942;2023-01-29T11:56:44;101163.88;;;0.32;79.53
60920;BME280;59039;52.108;19.942;2023-01-29T11:59:40;101156.07;;;0.31;79.54
60920;BME280;59039;52.108;19.942;2023-01-29T12:02:24;101151.16;;;0.30;79.53
60920;BME280;59039;52.108;19.942;2023-01-29T12:04:55;101142.61;;;0.29;79.90
60920;BME280;59039;52.108;19.942;2023-01-29T12:07:47;101141.10;;;0.31;79.69
60920;BME280;59039;52.108;19.942;2023-01-29T12:15:38;101129.69;;;0.35;80.04
60920;BME280;59039;52.108;19.942;2023-01-29T12:20:54;101125.77;;;0.39;80.01
60920;BME280;59039;52.108;19.942;2023-01-29T12:24:03;101120.90;;;0.40;79.78
60920;BME280;59039;52.108;19.942;2023-01-29T12:26:54;101122.44;;;0.38;79.83
60920;BME280;59039;52.108;19.942;2023-01-29T12:32:43;101103.10;;;0.32;80.00
60920;BME280;59039;52.108;19.942;2023-01-29T12:35:30;101103.62;;;0.32;80.10
60920;BME280;59039;52.108;19.942;2023-01-29T12:38:12;101101.61;;;0.33;80.19
60920;BME280;59039;52.108;19.942;2023-01-29T12:40:45;101094.51;;;0.32;80.09
60920;BME280;59039;52.108;19.942;2023-01-29T12:46:36;101095.98;;;0.28;80.22
60920;BME280;59039;52.108;19.942;2023-01-29T12:49:14;101088.02;;;0.27;80.27
60920;BME280;59039;52.108;19.942;2023-01-29T12:51:48;101082.36;;;0.26;80.13
60920;BME280;59039;52.108;19.942;2023-01-29T12:54:21;101080.29;;;0.24;80.69
60920;BME280;59039;52.108;19.942;2023-01-29T12:57:09;101085.89;;;0.23;81.30
60920;BME280;59039;52.108;19.942;2023-01-29T12:59:45;101092.14;;;0.22;81.14
60920;BME280;59039;52.108;19.942;2023-01-29T13:02:35;101086.86;;;0.21;80.95
60920;BME280;59039;52.108;19.942;2023-01-29T13:06:07;101081.67;;;0.21;80.80
60920;BME280;59039;52.108;19.942;2023-01-29T13:08:19;101082.85;;;0.19;81.25
60920;BME280;59039;52.108;19.942;2023-01-29T13:10:50;101076.09;;;0.18;81.54
60920;BME280;59039;52.108;19.942;2023-01-29T13:13:33;101073.23;;;0.19;81.52
60920;BME280;59039;52.108;19.942;2023-01-29T13:16:03;101078.73;;;0.20;81.07
60920;BME280;59039;52.108;19.942;2023-01-29T13:18:51;101071.70;;;0.17;81.02
60920;BME280;59039;52.108;19.942;2023-01-29T13:21:22;101072.11;;;0.16;80.54
60920;BME280;59039;52.108;19.942;2023-01-29T13:23:52;101076.61;;;0.11;81.08
60920;BME280;59039;52.108;19.942;2023-01-29T13:26:27;101076.88;;;0.10;80.87
60920;BME280;59039;52.108;19.942;2023-01-29T13:28:56;101086.75;;;0.08;81.63
60920;BME280;59039;52.108;19.942;2023-01-29T13:34:23;101083.12;;;0.09;81.15
60920;BME280;59039;52.108;19.942;2023-01-29T13:37:55;101080.66;;;0.09;81.37
60920;BME280;59039;52.108;19.942;2023-01-29T13:40:06;101068.36;;;0.09;81.36
60920;BME280;59039;52.108;19.942;2023-01-29T13:42:52;101070.88;;;0.08;81.30
60920;BME280;59039;52.108;19.942;2023-01-29T13:46:21;101064.91;;;0.06;81.98
60920;BME280;59039;52.108;19.942;2023-01-29T13:48:31;101063.39;;;0.09;82.97
60920;BME280;59039;52.108;19.942;2023-01-29T13:51:18;101062.36;;;0.11;82.42
60920;BME280;59039;52.108;19.942;2023-01-29T13:54:01;101066.39;;;0.13;82.11
60920;BME280;59039;52.108;19.942;2023-01-29T13:59:48;101076.61;;;0.15;82.28
60920;BME280;59039;52.108;19.942;2023-01-29T14:02:27;101073.18;;;0.16;82.30
60920;BME280;59039;52.108;19.942;2023-01-29T14:08:39;101077.69;;;0.19;82.44
60920;BME280;59039;52.108;19.942;2023-01-29T14:17:23;101063.21;;;0.24;82.97
60920;BME280;59039;52.108;19.942;2023-01-29T14:19:52;101070.27;;;0.25;82.86
60920;BME280;59039;52.108;19.942;2023-01-29T14:22:22;101066.09;;;0.27;82.80
60920;BME280;59039;52.108;19.942;2023-01-29T14:25:30;101070.30;;;0.28;82.45
60920;BME280;59039;52.108;19.942;2023-01-29T14:28:12;101055.64;;;0.29;82.48
60920;BME280;59039;52.108;19.942;2023-01-29T14:39:37;101039.94;;;0.29;82.04
60920;BME280;59039;52.108;19.942;2023-01-29T14:42:29;101039.86;;;0.28;82.47
60920;BME280;59039;52.108;19.942;2023-01-29T14:51:13;101045.89;;;0.24;82.10
60920;BME280;59039;52.108;19.942;2023-01-29T14:57:02;101053.23;;;0.20;82.99
60920;BME280;59039;52.108;19.942;2023-01-29T15:00:20;101052.79;;;0.22;83.13
60920;BME280;59039;52.108;19.942;2023-01-29T15:02:24;101052.92;;;0.23;82.39
60920;BME280;59039;52.108;19.942;2023-01-29T15:05:04;101055.36;;;0.20;82.44
60920;BME280;59039;52.108;19.942;2023-01-29T15:10:43;101051.50;;;0.19;82.67
60920;BME280;59039;52.108;19.942;2023-01-29T15:13:25;101050.14;;;0.17;83.09
60920;BME280;59039;52.108;19.942;2023-01-29T15:16:05;101049.56;;;0.18;82.99
60920;BME280;59039;52.108;19.942;2023-01-29T15:18:38;101049.34;;;0.19;83.09
60920;BME280;59039;52.108;19.942;2023-01-29T15:24:23;101037.28;;;0.22;83.18
60920;BME280;59039;52.108;19.942;2023-01-29T15:27:05;101032.27;;;0.22;83.19
60920;BME280;59039;52.108;19.942;2023-01-29T15:29:33;101030.50;;;0.22;82.78
60920;BME280;59039;52.108;19.942;2023-01-29T15:32:23;101019.46;;;0.22;82.81
60920;BME280;59039;52.108;19.942;2023-01-29T15:38:42;101012.96;;;0.23;82.91
60920;BME280;59039;52.108;19.942;2023-01-29T15:40:58;101011.17;;;0.24;82.87
60920;BME280;59039;52.108;19.942;2023-01-29T15:44:25;101007.44;;;0.24;82.78
60920;BME280;59039;52.108;19.942;2023-01-29T15:46:51;101005.10;;;0.24;82.93
60920;BME280;59039;52.108;19.942;2023-01-29T15:49:26;100994.88;;;0.25;83.29
60920;BME280;59039;52.108;19.942;2023-01-29T15:52:21;100993.59;;;0.26;83.02
60920;BME280;59039;52.108;19.942;2023-01-29T15:54:53;100999.72;;;0.28;82.86
60920;BME280;59039;52.108;19.942;2023-01-29T15:57:25;100996.48;;;0.29;82.74
60920;BME280;59039;52.108;19.942;2023-01-29T15:59:57;100998.63;;;0.28;82.85
60920;BME280;59039;52.108;19.942;2023-01-29T16:02:39;101006.33;;;0.27;82.85
60920;BME280;59039;52.108;19.942;2023-01-29T16:05:10;101010.70;;;0.26;82.84
60920;BME280;59039;52.108;19.942;2023-01-29T16:07:57;101013.81;;;0.24;82.43
60920;BME280;59039;52.108;19.942;2023-01-29T16:10:46;101020.13;;;0.23;82.46
60920;BME280;59039;52.108;19.942;2023-01-29T16:13:42;101017.86;;;0.21;82.53
60920;BME280;59039;52.108;19.942;2023-01-29T16:18:52;101022.55;;;0.16;82.62
60920;BME280;59039;52.108;19.942;2023-01-29T16:21:39;101020.94;;;0.17;82.83
60920;BME280;59039;52.108;19.942;2023-01-29T16:24:23;101016.94;;;0.19;82.81
60920;BME280;59039;52.108;19.942;2023-01-29T16:30:12;101010.05;;;0.17;82.96
60920;BME280;59039;52.108;19.942;2023-01-29T16:32:59;101004.12;;;0.18;82.95
60920;BME280;59039;52.108;19.942;2023-01-29T16:35:24;100994.48;;;0.18;82.80
60920;BME280;59039;52.108;19.942;2023-01-29T16:38:23;100994.70;;;0.17;82.77
60920;BME280;59039;52.108;19.942;2023-01-29T16:41:36;100991.71;;;0.17;83.25
60920;BME280;59039;52.108;19.942;2023-01-29T16:44:35;100987.06;;;0.17;83.29
60920;BME280;59039;52.108;19.942;2023-01-29T16:56:04;100985.83;;;0.20;83.14